createdAt,value
2018-10-17T00:01:41.376Z,16.32
2018-10-17T00:04:09.007Z,15.80
2018-10-17T00:06:36.685Z,15.50
2018-10-17T00:09:06.728Z,16.45
2018-10-17T00:11:34.780Z,16.42
2018-10-17T00:14:02.371Z,16.35
2018-10-17T00:16:29.969Z,17.25
2018-10-17T00:18:57.554Z,17.80
2018-10-17T00:21:25.175Z,17.82
2018-10-17T00:23:52.784Z,20.95
2018-10-17T00:26:20.461Z,17.32
2018-10-17T00:28:48.065Z,18.82
2018-10-17T00:31:15.766Z,19.02
2018-10-17T00:33:43.349Z,18.00
2018-10-17T00:36:11.774Z,19.00
2018-10-17T00:38:39.445Z,18.25
2018-10-17T00:41:07.033Z,20.20
2018-10-17T00:43:34.639Z,18.87
2018-10-17T00:46:02.236Z,21.37
2018-10-17T00:48:29.795Z,21.62
2018-10-17T00:50:57.388Z,19.87
2018-10-17T00:53:25.061Z,21.65
2018-10-17T00:55:53.518Z,21.73
2018-10-17T00:58:21.421Z,16.30
2018-10-17T01:00:49.011Z,14.15
2018-10-17T01:03:16.642Z,17.23
2018-10-17T01:05:44.221Z,18.02
2018-10-17T01:08:11.926Z,17.50
2018-10-17T01:10:39.536Z,15.48
2018-10-17T01:13:07.962Z,20.90
2018-10-17T01:15:35.591Z,26.52
2018-10-17T01:18:03.185Z,22.60
2018-10-17T01:20:31.560Z,23.57
2018-10-17T01:22:59.281Z,24.77
2018-10-17T01:25:27.122Z,27.13
2018-10-17T01:27:54.818Z,25.43
2018-10-17T01:30:22.386Z,21.90
2018-10-17T01:32:49.983Z,20.90
2018-10-17T01:35:17.598Z,19.75
2018-10-17T01:37:45.206Z,19.25
2018-10-17T01:40:12.856Z,18.37
2018-10-17T01:42:40.446Z,16.82
2018-10-17T01:45:09.123Z,18.65
2018-10-17T01:47:36.737Z,18.50
2018-10-17T01:50:05.240Z,18.90
2018-10-17T01:52:32.838Z,20.62
2018-10-17T01:55:01.001Z,20.27
2018-10-17T01:57:28.574Z,21.25
2018-10-17T01:59:56.158Z,18.80
2018-10-17T02:02:23.753Z,20.43
2018-10-17T02:04:51.355Z,20.40
2018-10-17T02:07:18.991Z,20.55
2018-10-17T02:09:47.326Z,21.10
2018-10-17T02:12:14.986Z,18.87
2018-10-17T02:14:42.588Z,20.08
2018-10-17T02:17:10.318Z,20.17
2018-10-17T02:19:37.917Z,18.00
2018-10-17T02:22:05.514Z,19.35
2018-10-17T02:24:33.133Z,19.10
2018-10-17T02:27:00.691Z,19.67
2018-10-17T02:29:28.521Z,19.90
2018-10-17T02:31:56.213Z,18.40
2018-10-17T02:34:23.810Z,21.15
2018-10-17T02:36:51.559Z,21.20
2018-10-17T02:39:19.145Z,19.42
2018-10-17T02:41:46.825Z,20.10
2018-10-17T02:44:14.434Z,20.45
2018-10-17T02:46:42.087Z,20.70
2018-10-17T02:49:09.747Z,19.12
2018-10-17T02:51:37.322Z,21.02
2018-10-17T02:54:06.201Z,20.60
2018-10-17T02:56:33.829Z,19.23
2018-10-17T02:59:02.200Z,21.93
2018-10-17T03:01:30.432Z,22.70
2018-10-17T03:03:58.095Z,21.12
2018-10-17T03:06:25.798Z,21.85
2018-10-17T03:08:53.386Z,22.65
2018-10-17T03:11:20.933Z,22.70
2018-10-17T03:13:49.425Z,23.12
2018-10-17T03:16:17.060Z,21.82
2018-10-17T03:18:44.672Z,23.67
2018-10-17T03:21:12.267Z,23.32
2018-10-17T03:23:40.024Z,22.05
2018-10-17T03:26:07.746Z,22.02
2018-10-17T03:28:35.430Z,20.25
2018-10-17T03:31:03.056Z,20.32
2018-10-17T03:33:30.573Z,21.97
2018-10-17T03:35:58.416Z,21.23
2018-10-17T03:38:25.978Z,19.52
2018-10-17T03:40:53.658Z,19.45
2018-10-17T03:43:21.564Z,24.70
2018-10-17T03:45:49.187Z,29.52
2018-10-17T03:48:16.784Z,31.07
2018-10-17T03:50:44.424Z,25.68
2018-10-17T03:53:12.041Z,23.73
2018-10-17T03:55:40.365Z,21.35
2018-10-17T03:58:08.197Z,24.75
2018-10-17T04:00:36.603Z,24.77
2018-10-17T04:03:04.534Z,21.33
2018-10-17T04:05:36.727Z,20.50
2018-10-17T04:08:04.387Z,21.45
2018-10-17T04:10:32.005Z,20.05
2018-10-17T04:13:03.758Z,19.92
2018-10-17T04:18:06.531Z,19.02
2018-10-17T04:20:35.790Z,19.27
2018-10-17T04:23:03.647Z,21.15
2018-10-17T04:25:32.101Z,19.05
2018-10-17T04:27:59.939Z,20.48
2018-10-17T04:30:27.622Z,21.05
2018-10-17T04:32:55.308Z,21.70
2018-10-17T04:35:22.950Z,20.60
2018-10-17T04:37:51.422Z,20.05
2018-10-17T04:40:19.373Z,20.02
2018-10-17T04:42:46.982Z,20.35
2018-10-17T04:45:14.809Z,20.40
2018-10-17T04:47:43.317Z,20.95
2018-10-17T04:50:11.133Z,18.32
2018-10-17T04:52:39.628Z,21.00
2018-10-17T04:55:09.210Z,20.90
2018-10-17T04:57:36.733Z,20.43
2018-10-17T05:00:07.230Z,18.95
2018-10-17T05:02:34.821Z,20.45
2018-10-17T05:05:02.521Z,19.10
2018-10-17T05:07:30.178Z,19.32
2018-10-17T05:09:57.805Z,20.50
2018-10-17T05:12:25.507Z,22.32
2018-10-17T05:14:53.193Z,20.45
2018-10-17T05:17:21.116Z,18.90
2018-10-17T05:19:48.699Z,19.35
2018-10-17T05:22:16.302Z,17.87
2018-10-17T05:24:44.010Z,18.70
2018-10-17T05:27:11.941Z,19.40
2018-10-17T05:29:39.634Z,18.35
2018-10-17T05:32:07.245Z,19.37
2018-10-17T05:34:35.417Z,21.27
2018-10-17T05:37:03.157Z,20.17
2018-10-17T05:39:30.771Z,20.70
2018-10-17T05:41:58.513Z,19.07
2018-10-17T05:44:26.175Z,19.02
2018-10-17T05:46:54.170Z,20.48
2018-10-17T05:49:21.779Z,21.45
2018-10-17T05:51:50.281Z,20.43
2018-10-17T05:54:17.932Z,19.05
2018-10-17T05:56:45.619Z,19.35
2018-10-17T05:59:13.373Z,19.37
2018-10-17T06:01:41.150Z,20.50
2018-10-17T06:04:08.821Z,18.35
2018-10-17T06:06:36.523Z,18.37
2018-10-17T06:09:06.511Z,18.25
2018-10-17T06:11:34.155Z,20.68
2018-10-17T06:14:01.929Z,18.32
2018-10-17T06:16:29.817Z,18.52
2018-10-17T06:18:57.493Z,19.92
2018-10-17T06:21:25.212Z,18.67
2018-10-17T06:23:53.903Z,18.27
2018-10-17T06:26:21.589Z,20.32
2018-10-17T06:28:49.203Z,24.35
2018-10-17T06:31:17.032Z,20.60
2018-10-17T06:33:44.652Z,19.30
2018-10-17T06:36:12.228Z,19.02
2018-10-17T06:38:39.839Z,22.10
2018-10-17T06:41:07.848Z,24.23
2018-10-17T06:43:35.499Z,23.00
2018-10-17T06:46:03.240Z,26.82
2018-10-17T06:48:30.961Z,29.23
2018-10-17T06:50:58.672Z,26.12
2018-10-17T06:53:26.254Z,25.05
2018-10-17T06:55:54.121Z,26.55
2018-10-17T06:58:21.773Z,25.02
2018-10-17T07:00:49.463Z,26.77
2018-10-17T07:03:17.910Z,26.90
2018-10-17T07:05:45.526Z,20.55
2018-10-17T07:08:13.217Z,20.23
2018-10-17T07:10:40.802Z,22.90
2018-10-17T07:13:08.541Z,20.10
2018-10-17T07:15:36.266Z,20.08
2018-10-17T07:18:04.229Z,20.32
2018-10-17T07:20:31.844Z,20.65
2018-10-17T07:22:59.527Z,20.97
2018-10-17T07:25:27.413Z,22.75
2018-10-17T07:27:55.120Z,19.37
2018-10-17T07:30:22.764Z,20.85
2018-10-17T07:32:50.437Z,21.70
2018-10-17T07:35:19.147Z,21.07
2018-10-17T07:37:46.841Z,20.90
2018-10-17T07:40:15.267Z,18.70
2018-10-17T07:42:42.914Z,20.25
2018-10-17T07:45:10.600Z,21.97
2018-10-17T07:47:38.274Z,21.15
2018-10-17T07:50:07.183Z,22.73
2018-10-17T07:52:35.447Z,21.50
2018-10-17T07:55:03.261Z,22.25
2018-10-17T07:57:31.024Z,22.17
2018-10-17T07:59:58.719Z,21.25
2018-10-17T08:02:26.448Z,23.83
2018-10-17T08:04:54.139Z,21.60
2018-10-17T08:07:21.837Z,20.20
2018-10-17T08:09:49.950Z,20.20
2018-10-17T08:12:17.570Z,21.52
2018-10-17T08:14:45.192Z,21.20
2018-10-17T08:17:13.409Z,20.43
2018-10-17T08:19:41.745Z,21.05
2018-10-17T08:22:09.396Z,22.15
2018-10-17T08:24:37.021Z,22.35
2018-10-17T08:27:05.550Z,23.20
2018-10-17T08:29:33.282Z,22.27
2018-10-17T08:32:00.959Z,22.65
2018-10-17T08:34:28.641Z,22.20
2018-10-17T08:36:57.286Z,21.70
2018-10-17T08:39:24.416Z,21.97
2018-10-17T08:41:52.056Z,24.02
2018-10-17T08:44:20.248Z,25.90
2018-10-17T08:46:47.921Z,32.40
2018-10-17T08:49:15.581Z,26.07
2018-10-17T08:51:43.259Z,29.60
2018-10-17T08:54:11.150Z,27.22
2018-10-17T08:56:38.819Z,30.85
2018-10-17T08:59:07.138Z,26.42
2018-10-17T09:01:34.800Z,25.25
2018-10-17T09:04:02.448Z,26.65
2018-10-17T09:06:31.045Z,25.80
2018-10-17T09:08:58.726Z,26.82
2018-10-17T09:11:26.374Z,25.45
2018-10-17T09:13:54.124Z,24.63
2018-10-17T09:16:21.795Z,24.50
2018-10-17T09:18:49.332Z,23.30
2018-10-17T09:21:17.253Z,22.02
2018-10-17T09:23:44.628Z,24.95
2018-10-17T09:26:12.470Z,23.87
2018-10-17T09:28:40.086Z,23.92
2018-10-17T09:31:08.287Z,22.37
2018-10-17T09:33:35.917Z,20.37
2018-10-17T09:36:03.853Z,20.35
2018-10-17T09:38:31.534Z,21.30
2018-10-17T09:40:59.213Z,20.30
2018-10-17T09:43:26.951Z,21.40
2018-10-17T09:45:54.481Z,21.23
2018-10-17T09:48:22.364Z,21.70
2018-10-17T09:50:49.989Z,24.33
2018-10-17T09:53:17.722Z,21.43
2018-10-17T09:55:46.182Z,20.80
2018-10-17T09:58:14.101Z,22.40
2018-10-17T10:00:47.432Z,22.67
2018-10-17T10:03:15.039Z,22.80
2018-10-17T10:05:42.670Z,24.20
2018-10-17T10:10:49.218Z,22.23
2018-10-17T10:13:16.818Z,25.07
2018-10-17T10:15:44.577Z,23.00
2018-10-17T10:18:17.467Z,25.87
2018-10-17T10:23:15.273Z,23.93
2018-10-17T10:25:42.766Z,25.33
2018-10-17T10:28:10.427Z,27.00
2018-10-17T10:30:38.530Z,23.30
2018-10-17T10:33:06.161Z,22.37
2018-10-17T10:35:33.798Z,25.17
2018-10-17T10:38:02.510Z,33.77
2018-10-17T10:40:30.280Z,33.17
2018-10-17T10:42:57.964Z,31.57
2018-10-17T10:45:25.645Z,32.63
2018-10-17T10:47:53.337Z,32.57
2018-10-17T10:50:21.771Z,33.17
2018-10-17T10:52:49.396Z,29.23
2018-10-17T10:55:16.949Z,30.90
2018-10-17T10:57:44.635Z,29.67
2018-10-17T11:00:13.028Z,29.63
2018-10-17T11:02:41.283Z,32.40
2018-10-17T11:05:09.644Z,32.07
2018-10-17T11:07:37.290Z,33.40
2018-10-17T11:10:05.094Z,32.90
2018-10-17T11:12:32.750Z,31.47
2018-10-17T11:15:00.625Z,34.13
2018-10-17T11:17:28.011Z,30.40
2018-10-17T11:19:55.701Z,31.00
2018-10-17T11:22:23.326Z,31.17
2018-10-17T11:24:51.029Z,33.53
2018-10-17T11:27:19.514Z,32.63
2018-10-17T11:29:46.957Z,29.87
2018-10-17T11:32:14.602Z,31.90
2018-10-17T11:34:42.176Z,31.27
2018-10-17T11:37:10.694Z,29.93
2018-10-17T11:39:38.265Z,30.50
2018-10-17T11:42:06.170Z,29.73
2018-10-17T11:44:33.925Z,28.07
2018-10-17T11:47:01.729Z,28.27
2018-10-17T11:49:29.403Z,27.47
2018-10-17T11:51:57.038Z,29.10
2018-10-17T11:54:24.745Z,26.70
2018-10-17T11:56:53.035Z,29.97
2018-10-17T11:59:21.663Z,27.13
2018-10-17T12:01:49.265Z,33.93
2018-10-17T12:04:17.316Z,28.70
2018-10-17T12:06:44.570Z,27.87
2018-10-17T12:09:12.992Z,29.23
2018-10-17T12:11:41.225Z,28.07
2018-10-17T12:14:08.926Z,28.30
2018-10-17T12:16:36.567Z,30.10
2018-10-17T12:19:04.630Z,27.10
2018-10-17T12:21:32.403Z,24.60
2018-10-17T12:24:00.272Z,27.37
2018-10-17T12:26:27.791Z,25.50
2018-10-17T12:28:55.599Z,28.70
2018-10-17T12:31:23.245Z,25.37
2018-10-17T12:33:50.901Z,25.33
2018-10-17T12:36:18.642Z,30.23
2018-10-17T12:38:46.313Z,26.33
2018-10-17T12:41:14.842Z,28.13
2018-10-17T12:43:42.533Z,30.10
2018-10-17T12:46:10.904Z,28.40
2018-10-17T12:48:38.718Z,27.47
2018-10-17T12:51:06.727Z,28.03
2018-10-17T12:53:34.389Z,27.50
2018-10-17T12:56:02.273Z,27.70
2018-10-17T12:58:30.598Z,27.70
2018-10-17T13:00:58.288Z,27.33
2018-10-17T13:03:26.048Z,27.00
2018-10-17T13:05:53.754Z,24.70
2018-10-17T13:08:21.517Z,24.50
2018-10-17T13:10:49.166Z,25.63
2018-10-17T13:13:17.521Z,26.77
2018-10-17T13:15:45.033Z,27.07
2018-10-17T13:18:12.805Z,25.83
2018-10-17T13:20:40.437Z,25.43
2018-10-17T13:23:08.738Z,24.33
2018-10-17T13:25:36.992Z,27.83
2018-10-17T13:28:05.398Z,26.07
2018-10-17T13:30:32.982Z,23.20
2018-10-17T13:33:00.661Z,25.00
2018-10-17T13:35:28.349Z,27.73
2018-10-17T13:37:55.935Z,26.40
2018-10-17T13:40:23.627Z,28.57
2018-10-17T13:42:51.338Z,27.93
2018-10-17T13:45:19.006Z,25.80
2018-10-17T13:47:46.593Z,27.23
2018-10-17T13:50:14.354Z,25.50
2018-10-17T13:52:41.943Z,25.10
2018-10-17T13:55:09.708Z,24.23
2018-10-17T13:57:37.354Z,24.60
2018-10-17T14:00:06.535Z,24.43
2018-10-17T14:02:34.232Z,22.60
2018-10-17T14:05:01.874Z,21.53
2018-10-17T14:07:29.566Z,22.27
2018-10-17T14:09:57.169Z,22.97
2018-10-17T14:12:24.923Z,22.07
2018-10-17T14:14:52.584Z,19.60
2018-10-17T14:17:20.239Z,19.33
2018-10-17T14:19:47.780Z,22.13
2018-10-17T14:22:15.509Z,20.40
2018-10-17T14:24:43.212Z,24.10
2018-10-17T14:27:10.842Z,28.47
2018-10-17T14:29:38.622Z,24.97
2018-10-17T14:32:06.157Z,18.97
2018-10-17T14:34:33.977Z,19.13
2018-10-17T14:37:01.642Z,18.77
2018-10-17T14:39:29.420Z,19.83
2018-10-17T14:41:57.716Z,17.40
2018-10-17T14:44:25.493Z,17.70
2018-10-17T14:46:53.379Z,17.00
2018-10-17T14:49:21.520Z,15.43
2018-10-17T14:51:49.254Z,16.60
2018-10-17T14:54:16.968Z,16.37
2018-10-17T14:56:44.622Z,18.33
2018-10-17T14:59:12.862Z,17.40
2018-10-17T15:01:40.617Z,16.53
2018-10-17T15:04:08.280Z,18.10
2018-10-17T15:06:36.125Z,16.13
2018-10-17T15:09:05.445Z,15.57
2018-10-17T15:11:33.284Z,17.00
2018-10-17T15:14:01.034Z,16.60
2018-10-17T15:16:29.703Z,15.20
2018-10-17T15:18:57.373Z,15.10
2018-10-17T15:21:25.594Z,16.40
2018-10-17T15:23:53.268Z,14.00
2018-10-17T15:26:20.914Z,15.70
2018-10-17T15:28:48.624Z,15.63
2018-10-17T15:31:16.350Z,15.93
2018-10-17T15:33:44.001Z,15.70
2018-10-17T15:36:11.933Z,16.60
2018-10-17T15:38:39.573Z,15.57
2018-10-17T15:41:07.254Z,16.13
2018-10-17T15:43:35.705Z,15.80
2018-10-17T15:46:03.321Z,16.63
2018-10-17T15:48:30.965Z,15.60
2018-10-17T15:50:58.642Z,14.27
2018-10-17T15:53:26.756Z,15.20
2018-10-17T15:55:55.054Z,14.30
2018-10-17T15:58:23.278Z,14.10
2018-10-17T16:00:50.931Z,14.60
2018-10-17T16:03:18.627Z,15.60
2018-10-17T16:05:46.960Z,14.57
2018-10-17T16:08:14.671Z,15.33
2018-10-17T16:10:42.230Z,13.80
2018-10-17T16:13:09.821Z,14.50
2018-10-17T16:15:38.666Z,14.93
2018-10-17T16:18:06.884Z,13.50
2018-10-17T16:20:34.553Z,13.93
2018-10-17T16:23:02.422Z,14.60
2018-10-17T16:25:30.574Z,14.67
2018-10-17T16:27:58.170Z,12.57
2018-10-17T16:30:25.920Z,13.37
2018-10-17T16:32:53.431Z,15.27
2018-10-17T16:35:21.165Z,13.60
2018-10-17T16:37:49.579Z,13.17
2018-10-17T16:40:17.905Z,15.30
2018-10-17T16:42:49.798Z,14.83
2018-10-17T16:45:18.538Z,12.30
2018-10-17T16:47:46.295Z,13.70
2018-10-17T16:50:14.729Z,13.83
2018-10-17T16:52:42.438Z,12.33
2018-10-17T16:55:10.244Z,13.10
2018-10-17T16:57:38.220Z,13.37
2018-10-17T17:00:07.569Z,15.00
2018-10-17T17:02:35.206Z,14.03
2018-10-17T17:05:03.183Z,13.67
2018-10-17T17:07:31.164Z,12.27
2018-10-17T17:09:58.836Z,12.70
2018-10-17T17:12:26.488Z,13.50
2018-10-17T17:14:54.137Z,13.40
2018-10-17T17:17:21.734Z,13.00
2018-10-17T17:19:49.440Z,13.30
2018-10-17T17:22:17.141Z,13.40
2018-10-17T17:24:44.945Z,13.97
2018-10-17T17:27:13.225Z,14.30
2018-10-17T17:29:42.164Z,14.10
2018-10-17T17:32:09.842Z,14.83
2018-10-17T17:34:37.813Z,14.68
2018-10-17T17:37:05.517Z,14.93
2018-10-17T17:39:33.951Z,12.80
2018-10-17T17:42:01.833Z,12.65
2018-10-17T17:44:35.786Z,13.95
2018-10-17T17:47:04.054Z,12.63
2018-10-17T17:49:31.703Z,14.50
2018-10-17T17:51:59.377Z,12.10
2018-10-17T17:54:27.170Z,13.40
2018-10-17T17:56:54.846Z,12.70
2018-10-17T17:59:22.644Z,14.18
2018-10-17T18:01:50.342Z,12.58
2018-10-17T18:04:18.645Z,13.55
2018-10-17T18:06:46.397Z,12.20
2018-10-17T18:09:15.256Z,12.70
2018-10-17T18:11:47.092Z,12.93
2018-10-17T18:14:14.888Z,12.58
2018-10-17T18:16:42.634Z,12.78
2018-10-17T18:19:10.376Z,11.57
2018-10-17T18:21:38.207Z,10.65
2018-10-17T18:24:05.913Z,12.00
2018-10-17T18:26:33.762Z,11.03
2018-10-17T18:29:01.575Z,10.68
2018-10-17T18:31:34.054Z,11.57
2018-10-17T18:34:05.570Z,14.30
2018-10-17T18:36:33.483Z,11.53
2018-10-17T18:39:06.390Z,11.90
2018-10-17T18:41:34.290Z,11.70
2018-10-17T18:44:02.199Z,11.43
2018-10-17T18:46:30.172Z,12.43
2018-10-17T18:48:57.948Z,15.05
2018-10-17T18:51:25.783Z,14.00
2018-10-17T18:53:54.307Z,12.20
2018-10-17T18:56:22.182Z,13.95
2018-10-17T18:58:50.313Z,14.47
2018-10-17T19:01:19.169Z,13.15
2018-10-17T19:03:47.007Z,15.45
2018-10-17T19:06:14.725Z,12.63
2018-10-17T19:08:44.077Z,13.40
2018-10-17T19:11:11.868Z,12.65
2018-10-17T19:13:40.899Z,11.28
2018-10-17T19:16:08.839Z,13.28
2018-10-17T19:18:36.670Z,13.38
2018-10-17T19:21:04.740Z,14.55
2018-10-17T19:23:32.576Z,13.95
2018-10-17T19:26:00.492Z,14.10
2018-10-17T19:28:28.263Z,15.38
2018-10-17T19:30:56.608Z,15.80
2018-10-17T19:33:24.415Z,15.35
2018-10-17T19:35:52.480Z,15.30
2018-10-17T19:38:20.391Z,13.90
2018-10-17T19:40:48.061Z,11.97
2018-10-17T19:43:15.849Z,11.60
2018-10-17T19:45:43.490Z,11.80
2018-10-17T19:48:11.126Z,12.70
2018-10-17T19:50:39.565Z,11.12
2018-10-17T19:53:07.328Z,12.07
2018-10-17T19:55:35.672Z,11.25
2018-10-17T19:58:03.529Z,12.47
2018-10-17T20:00:31.302Z,13.10
2018-10-17T20:02:59.035Z,12.65
2018-10-17T20:05:26.816Z,12.68
2018-10-17T20:07:54.513Z,13.22
2018-10-17T20:10:22.198Z,12.45
2018-10-17T20:12:49.908Z,12.15
2018-10-17T20:15:17.648Z,11.90
2018-10-17T20:17:45.427Z,12.40
2018-10-17T20:20:17.881Z,11.70
2018-10-17T20:22:46.665Z,12.33
2018-10-17T20:25:15.041Z,12.00
2018-10-17T20:27:42.813Z,11.30
2018-10-17T20:30:11.696Z,10.98
2018-10-17T20:32:39.522Z,11.78
2018-10-17T20:35:09.283Z,11.05
2018-10-17T20:37:38.066Z,10.90
2018-10-17T20:40:06.918Z,11.05
2018-10-17T20:42:34.642Z,12.20
2018-10-17T20:45:03.171Z,12.63
2018-10-17T20:47:31.622Z,13.25
2018-10-17T20:50:03.591Z,12.28
2018-10-17T20:52:32.005Z,11.90
2018-10-17T20:54:59.744Z,12.18
2018-10-17T20:57:28.355Z,12.60
2018-10-17T20:59:56.666Z,13.58
2018-10-17T21:02:25.208Z,11.97
2018-10-17T21:04:52.874Z,13.00
2018-10-17T21:07:21.153Z,12.15
2018-10-17T21:09:49.094Z,11.90
2018-10-17T21:12:16.952Z,12.58
2018-10-17T21:14:44.640Z,12.73
2018-10-17T21:17:12.311Z,14.95
2018-10-17T21:19:44.302Z,13.15
2018-10-17T21:24:39.994Z,13.58
2018-10-17T21:27:09.072Z,14.05
2018-10-17T21:29:37.000Z,16.10
2018-10-17T21:32:06.006Z,15.03
2018-10-17T21:34:33.857Z,16.57
2018-10-17T21:37:02.137Z,16.55
2018-10-17T21:39:30.604Z,15.93
2018-10-17T21:41:58.263Z,15.15
2018-10-17T21:44:25.900Z,16.67
2018-10-17T21:46:53.943Z,16.32
2018-10-17T21:49:21.691Z,15.48
2018-10-17T21:51:49.673Z,15.28
2018-10-17T21:54:17.545Z,15.18
2018-10-17T21:56:45.737Z,15.70
2018-10-17T21:59:13.462Z,16.85
2018-10-17T22:01:41.666Z,14.58
2018-10-17T22:04:09.394Z,16.52
2018-10-17T22:06:37.107Z,15.13
2018-10-17T22:09:07.876Z,14.45
2018-10-17T22:11:35.704Z,15.60
2018-10-17T22:14:04.327Z,15.80
2018-10-17T22:16:37.873Z,17.15
2018-10-17T22:19:06.487Z,15.32
2018-10-17T22:21:38.556Z,14.25
2018-10-17T22:24:15.436Z,15.63
2018-10-17T22:26:43.126Z,15.75
2018-10-17T22:29:12.078Z,17.32
2018-10-17T22:31:39.819Z,15.88
2018-10-17T22:34:08.203Z,16.97
2018-10-17T22:36:35.976Z,16.20
2018-10-17T22:39:07.116Z,15.43
2018-10-17T22:41:34.894Z,17.02
2018-10-17T22:44:03.328Z,17.20
2018-10-17T22:46:36.591Z,18.05
2018-10-17T22:49:04.765Z,16.25
2018-10-17T22:51:32.495Z,16.25
2018-10-17T22:54:00.769Z,16.23
2018-10-17T22:56:29.141Z,17.62
2018-10-17T23:01:27.488Z,17.17
2018-10-17T23:03:55.103Z,16.52
2018-10-17T23:06:22.737Z,17.20
2018-10-17T23:08:50.409Z,17.00
2018-10-17T23:11:18.801Z,17.15
2018-10-17T23:13:47.546Z,18.73
2018-10-17T23:16:16.198Z,20.45
2018-10-17T23:18:43.838Z,19.10
2018-10-17T23:21:16.754Z,19.62
2018-10-17T23:23:44.377Z,18.17
2018-10-17T23:26:13.998Z,18.85
2018-10-17T23:28:41.537Z,17.65
2018-10-17T23:31:09.304Z,18.05
2018-10-17T23:33:37.465Z,17.95
2018-10-17T23:36:05.227Z,17.92
2018-10-17T23:38:32.883Z,18.30
2018-10-17T23:41:00.683Z,17.23
2018-10-17T23:43:28.521Z,18.23
2018-10-17T23:45:57.499Z,18.67
2018-10-17T23:48:25.512Z,18.07
2018-10-17T23:50:53.219Z,19.37
2018-10-17T23:53:22.228Z,19.20
2018-10-17T23:55:49.961Z,17.87
2018-10-17T23:58:17.565Z,18.00
